createdAt,value
2018-12-11T00:02:00.869Z,5.40
2018-12-11T00:04:29.072Z,7.47
2018-12-11T00:06:57.262Z,14.47
2018-12-11T00:09:25.588Z,7.50
2018-12-11T00:11:53.907Z,6.73
2018-12-11T00:14:22.228Z,6.30
2018-12-11T00:16:50.548Z,4.57
2018-12-11T00:19:18.668Z,4.67
2018-12-11T00:21:46.928Z,5.33
2018-12-11T00:24:15.207Z,8.53
2018-12-11T00:26:43.453Z,9.03
2018-12-11T00:29:11.665Z,4.50
2018-12-11T00:31:39.908Z,4.10
2018-12-11T00:34:08.104Z,3.93
2018-12-11T00:36:36.336Z,5.43
2018-12-11T00:39:05.496Z,5.47
2018-12-11T00:41:33.688Z,4.90
2018-12-11T00:44:01.871Z,3.07
2018-12-11T00:46:30.090Z,4.10
2018-12-11T00:48:58.291Z,3.90
2018-12-11T00:51:26.457Z,6.43
2018-12-11T00:53:54.673Z,7.13
2018-12-11T00:56:22.900Z,8.57
2018-12-11T00:58:51.192Z,5.20
2018-12-11T01:01:19.411Z,5.17
2018-12-11T01:03:47.630Z,7.57
2018-12-11T01:06:15.781Z,7.80
2018-12-11T01:08:43.988Z,7.87
2018-12-11T01:11:12.293Z,4.83
2018-12-11T01:13:40.611Z,5.60
2018-12-11T01:16:08.868Z,5.30
2018-12-11T01:18:37.097Z,6.60
2018-12-11T01:21:05.312Z,7.30
2018-12-11T01:23:33.533Z,4.77
2018-12-11T01:26:01.629Z,4.40
2018-12-11T01:28:29.848Z,6.43
2018-12-11T01:30:58.151Z,5.20
2018-12-11T01:33:26.573Z,5.50
2018-12-11T01:35:54.892Z,7.20
2018-12-11T01:38:23.213Z,3.97
2018-12-11T01:40:51.476Z,8.37
2018-12-11T01:43:19.751Z,3.23
2018-12-11T01:45:48.072Z,5.83
2018-12-11T01:48:16.393Z,3.33
2018-12-11T01:50:44.713Z,6.07
2018-12-11T01:53:12.934Z,5.13
2018-12-11T01:55:41.256Z,5.23
2018-12-11T01:58:09.488Z,6.63
2018-12-11T02:00:37.794Z,6.63
2018-12-11T02:03:06.015Z,50.30
2018-12-11T02:05:34.334Z,18.50
2018-12-11T02:08:02.754Z,20.57
2018-12-11T02:10:30.975Z,8.60
2018-12-11T02:12:59.297Z,4.00
2018-12-11T02:15:27.545Z,5.23
2018-12-11T02:17:55.764Z,7.30
2018-12-11T02:20:24.001Z,5.97
2018-12-11T02:22:52.312Z,4.27
2018-12-11T02:25:20.520Z,2.80
2018-12-11T02:27:48.737Z,6.77
2018-12-11T02:30:16.977Z,8.33
2018-12-11T02:32:45.199Z,36.97
2018-12-11T02:35:13.479Z,8.77
2018-12-11T02:37:41.798Z,3.80
2018-12-11T02:40:10.065Z,5.47
2018-12-11T02:42:38.281Z,4.70
2018-12-11T02:45:06.462Z,5.67
2018-12-11T02:47:34.708Z,4.97
2018-12-11T02:50:02.817Z,5.27
2018-12-11T02:52:31.040Z,6.13
2018-12-11T02:54:59.265Z,6.20
2018-12-11T02:57:27.561Z,8.50
2018-12-11T02:59:55.879Z,6.10
2018-12-11T03:02:24.125Z,6.20
2018-12-11T03:04:52.345Z,4.40
2018-12-11T03:07:20.709Z,4.10
2018-12-11T03:09:48.912Z,6.00
2018-12-11T03:12:17.120Z,4.53
2018-12-11T03:14:45.441Z,4.63
2018-12-11T03:17:13.866Z,5.97
2018-12-11T03:19:42.058Z,3.47
2018-12-11T03:22:10.361Z,3.97
2018-12-11T03:24:38.779Z,5.10
2018-12-11T03:27:07.005Z,5.17
2018-12-11T03:29:35.275Z,4.20
2018-12-11T03:32:03.986Z,3.57
2018-12-11T03:34:32.206Z,2.87
2018-12-11T03:37:00.483Z,4.93
2018-12-11T03:39:28.425Z,3.00
2018-12-11T03:41:56.723Z,3.63
2018-12-11T03:44:24.942Z,3.43
2018-12-11T03:46:53.597Z,4.60
2018-12-11T03:49:21.801Z,7.73
2018-12-11T03:51:49.919Z,5.87
2018-12-11T03:54:18.163Z,5.60
2018-12-11T03:56:46.340Z,5.50
2018-12-11T03:59:14.604Z,8.77
2018-12-11T04:01:42.828Z,4.57
2018-12-11T04:04:11.103Z,5.20
2018-12-11T04:06:39.372Z,7.03
2018-12-11T04:09:07.989Z,6.00
2018-12-11T04:11:36.206Z,4.67
2018-12-11T04:14:04.584Z,6.33
2018-12-11T04:16:32.737Z,68.37
2018-12-11T04:19:00.928Z,23.40
2018-12-11T04:21:29.578Z,6.70
2018-12-11T04:23:57.813Z,11.57
2018-12-11T04:26:25.926Z,6.30
2018-12-11T04:28:54.207Z,12.77
2018-12-11T04:31:22.370Z,5.47
2018-12-11T04:33:50.592Z,6.33
2018-12-11T04:36:18.966Z,29.80
2018-12-11T04:38:47.289Z,11.07
2018-12-11T04:41:15.537Z,4.83
2018-12-11T04:43:43.768Z,3.87
2018-12-11T04:46:11.870Z,7.87
2018-12-11T04:48:40.084Z,21.17
2018-12-11T04:51:08.317Z,11.93
2018-12-11T04:53:36.447Z,6.10
2018-12-11T04:56:04.724Z,12.83
2018-12-11T04:58:32.982Z,11.83
2018-12-11T05:01:01.210Z,7.50
2018-12-11T05:03:29.384Z,6.73
2018-12-11T05:05:57.706Z,6.40
2018-12-11T05:08:26.025Z,5.43
2018-12-11T05:10:54.281Z,6.43
2018-12-11T05:13:22.507Z,3.97
2018-12-11T05:15:50.785Z,5.20
2018-12-11T05:18:21.223Z,9.10
2018-12-11T05:20:49.433Z,8.50
2018-12-11T05:23:17.687Z,8.17
2018-12-11T05:25:45.897Z,6.23
2018-12-11T05:28:14.138Z,13.53
2018-12-11T05:30:42.356Z,5.53
2018-12-11T05:33:10.534Z,14.20
2018-12-11T05:35:38.784Z,9.17
2018-12-11T05:38:07.021Z,7.53
2018-12-11T05:40:35.294Z,8.67
2018-12-11T05:43:03.457Z,7.63
2018-12-11T05:45:31.633Z,7.83
2018-12-11T05:47:59.796Z,5.07
2018-12-11T05:50:28.072Z,6.10
2018-12-11T05:52:56.333Z,10.57
2018-12-11T05:55:26.721Z,8.10
2018-12-11T05:57:54.945Z,11.60
2018-12-11T06:00:23.185Z,11.10
2018-12-11T06:02:51.411Z,8.63
2018-12-11T06:05:19.520Z,10.63
2018-12-11T06:07:47.820Z,18.90
2018-12-11T06:10:16.060Z,7.47
2018-12-11T06:12:44.405Z,8.80
2018-12-11T06:15:12.784Z,22.27
2018-12-11T06:17:41.044Z,11.33
2018-12-11T06:20:09.264Z,9.00
2018-12-11T06:22:37.543Z,11.10
2018-12-11T06:25:05.660Z,10.20
2018-12-11T06:27:33.924Z,10.67
2018-12-11T06:30:02.204Z,8.33
2018-12-11T06:32:30.449Z,9.17
2018-12-11T06:34:58.740Z,6.63
2018-12-11T06:37:27.061Z,8.70
2018-12-11T06:39:55.313Z,10.63
2018-12-11T06:42:23.529Z,8.47
2018-12-11T06:44:51.764Z,9.47
2018-12-11T06:47:20.085Z,7.17
2018-12-11T06:49:48.436Z,7.60
2018-12-11T06:52:16.612Z,7.93
2018-12-11T06:54:44.845Z,11.43
2018-12-11T06:57:13.180Z,12.07
2018-12-11T06:59:41.351Z,9.20
2018-12-11T07:02:09.663Z,7.60
2018-12-11T07:04:37.982Z,11.07
2018-12-11T07:30:05.756Z,13.00
2018-12-11T07:35:14.123Z,6.73
2018-12-11T07:37:42.425Z,9.57
2018-12-11T07:40:10.687Z,8.30
2018-12-11T07:42:38.891Z,8.20
2018-12-11T07:45:07.378Z,5.83
2018-12-11T07:47:35.542Z,12.13
2018-12-11T07:50:04.000Z,10.77
2018-12-11T07:52:32.152Z,8.67
2018-12-11T07:55:00.381Z,7.67
2018-12-11T07:57:28.623Z,6.70
2018-12-11T07:59:56.828Z,8.33
2018-12-11T08:02:25.051Z,6.17
2018-12-11T08:04:53.265Z,7.03
2018-12-11T08:07:21.568Z,6.77
2018-12-11T08:09:49.888Z,11.13
2018-12-11T08:12:18.157Z,11.50
2018-12-11T08:14:46.373Z,7.73
2018-12-11T08:17:14.573Z,10.03
2018-12-11T08:19:42.793Z,11.03
2018-12-11T08:22:11.006Z,10.60
2018-12-11T08:24:39.812Z,7.40
2018-12-11T08:27:08.074Z,7.20
2018-12-11T08:29:36.285Z,6.93
2018-12-11T08:32:04.495Z,7.47
2018-12-11T08:34:32.717Z,7.80
2018-12-11T08:37:01.013Z,10.70
2018-12-11T08:39:29.232Z,16.47
2018-12-11T08:41:57.505Z,304.87
2018-12-11T08:44:25.670Z,11.30
2018-12-11T08:46:53.914Z,9.53
2018-12-11T08:49:22.210Z,8.73
2018-12-11T08:51:50.474Z,5.10
2018-12-11T08:54:18.684Z,30.63
2018-12-11T08:56:46.972Z,14.47
2018-12-11T08:59:15.238Z,5.03
2018-12-11T09:01:43.444Z,6.93
2018-12-11T09:04:11.544Z,10.40
2018-12-11T09:06:39.693Z,7.60
2018-12-11T09:09:07.916Z,10.67
2018-12-11T09:11:36.137Z,25.17
2018-12-11T09:14:04.399Z,8.57
2018-12-11T09:16:32.381Z,12.60
2018-12-11T09:19:00.581Z,8.93
2018-12-11T09:21:28.884Z,11.90
2018-12-11T09:23:57.138Z,17.27
2018-12-11T09:26:25.409Z,25.63
2018-12-11T09:28:53.670Z,8.57
2018-12-11T09:31:21.893Z,16.27
2018-12-11T09:33:50.124Z,13.23
2018-12-11T09:36:18.304Z,7.23
2018-12-11T09:38:46.609Z,8.27
2018-12-11T09:41:14.929Z,8.90
2018-12-11T09:43:42.972Z,9.53
2018-12-11T09:46:11.189Z,9.33
2018-12-11T09:48:39.453Z,5.27
2018-12-11T09:51:07.732Z,164.30
2018-12-11T09:53:36.030Z,12.87
2018-12-11T09:56:04.351Z,6.13
2018-12-11T09:58:32.612Z,9.10
2018-12-11T10:01:00.890Z,9.23
2018-12-11T10:03:29.130Z,9.47
2018-12-11T10:05:57.329Z,20.70
2018-12-11T10:08:25.494Z,10.70
2018-12-11T10:10:53.713Z,6.30
2018-12-11T10:13:21.936Z,8.50
2018-12-11T10:15:50.209Z,7.23
2018-12-11T10:18:18.479Z,10.90
2018-12-11T10:20:46.815Z,9.90
2018-12-11T10:23:15.472Z,7.27
2018-12-11T10:25:43.641Z,8.30
2018-12-11T10:28:11.836Z,8.07
2018-12-11T10:30:50.469Z,11.70
2018-12-11T10:33:18.889Z,9.93
2018-12-11T10:35:47.210Z,7.03
2018-12-11T10:38:15.477Z,12.83
2018-12-11T10:40:43.575Z,6.57
2018-12-11T10:43:11.785Z,7.90
2018-12-11T10:45:39.997Z,8.13
2018-12-11T10:48:08.232Z,6.50
2018-12-11T10:50:36.460Z,9.60
2018-12-11T10:53:04.796Z,11.83
2018-12-11T10:55:33.029Z,27.37
2018-12-11T10:58:01.224Z,21.93
2018-12-11T11:00:34.628Z,9.27
2018-12-11T11:03:08.168Z,7.83
2018-12-11T11:05:36.433Z,35.60
2018-12-11T11:08:04.634Z,7.03
2018-12-11T11:10:32.735Z,7.07
2018-12-11T11:13:00.969Z,16.00
2018-12-11T11:15:29.373Z,18.50
2018-12-11T11:17:57.634Z,33.17
2018-12-11T11:20:25.952Z,6.03
2018-12-11T11:22:54.050Z,6.60
2018-12-11T11:25:22.346Z,17.13
2018-12-11T11:27:50.613Z,17.53
2018-12-11T11:30:18.830Z,12.53
2018-12-11T11:32:47.033Z,14.23
2018-12-11T11:35:15.270Z,7.83
2018-12-11T11:37:43.547Z,7.63
2018-12-11T11:40:11.871Z,8.13
2018-12-11T11:42:40.389Z,6.67
2018-12-11T11:45:09.400Z,14.47
2018-12-11T11:47:37.548Z,6.70
2018-12-11T11:50:07.329Z,11.63
2018-12-11T11:52:35.498Z,4.50
2018-12-11T11:55:03.836Z,8.10
2018-12-11T11:57:32.117Z,8.40
2018-12-11T12:00:00.482Z,6.50
2018-12-11T12:02:33.372Z,7.97
2018-12-11T12:04:58.925Z,10.63
2018-12-11T12:07:27.125Z,15.37
2018-12-11T12:09:55.357Z,21.83
2018-12-11T12:12:23.544Z,14.53
2018-12-11T12:14:51.810Z,10.47
2018-12-11T12:17:20.030Z,7.13
2018-12-11T12:19:48.255Z,8.67
2018-12-11T12:22:16.473Z,7.97
2018-12-11T12:24:44.673Z,9.47
2018-12-11T12:27:12.966Z,8.97
2018-12-11T12:29:41.288Z,10.17
2018-12-11T12:32:09.543Z,17.80
2018-12-11T12:34:37.761Z,6.03
2018-12-11T12:37:06.045Z,11.07
2018-12-11T12:39:34.309Z,13.47
2018-12-11T12:42:02.501Z,11.40
2018-12-11T12:44:30.805Z,9.13
2018-12-11T12:46:59.031Z,7.47
2018-12-11T12:49:27.276Z,10.47
2018-12-11T12:51:55.667Z,10.50
2018-12-11T12:54:23.935Z,6.07
2018-12-11T12:56:52.137Z,8.90
2018-12-11T12:59:20.328Z,10.50
2018-12-11T13:01:48.646Z,13.27
2018-12-11T13:04:16.974Z,9.77
2018-12-11T13:06:45.532Z,4.70
2018-12-11T13:09:13.702Z,7.17
2018-12-11T13:11:41.865Z,7.10
2018-12-11T13:14:10.072Z,12.53
2018-12-11T13:16:38.369Z,14.50
2018-12-11T13:19:06.595Z,9.43
2018-12-11T13:21:34.770Z,14.13
2018-12-11T13:24:02.953Z,20.60
2018-12-11T13:26:31.246Z,6.77
2018-12-11T13:28:59.433Z,23.00
2018-12-11T13:31:27.710Z,22.17
2018-12-11T13:33:55.900Z,20.20
2018-12-11T13:36:24.128Z,18.77
2018-12-11T13:38:52.649Z,17.03
2018-12-11T13:41:20.968Z,10.77
2018-12-11T13:43:49.489Z,19.40
2018-12-11T13:46:17.752Z,33.57
2018-12-11T13:48:46.075Z,11.93
2018-12-11T13:51:14.350Z,15.03
2018-12-11T13:53:42.671Z,31.07
2018-12-11T13:56:10.991Z,16.97
2018-12-11T13:58:39.265Z,20.77
2018-12-11T14:01:07.481Z,29.03
2018-12-11T14:03:35.701Z,17.10
2018-12-11T14:06:03.925Z,15.90
2018-12-11T14:08:32.136Z,13.10
2018-12-11T14:11:00.357Z,13.00
2018-12-11T14:13:28.577Z,25.40
2018-12-11T14:15:56.782Z,13.93
2018-12-11T14:18:25.073Z,15.97
2018-12-11T14:20:53.390Z,10.20
2018-12-11T14:23:21.652Z,8.93
2018-12-11T14:25:49.855Z,9.10
2018-12-11T14:28:18.208Z,16.00
2018-12-11T14:30:46.425Z,13.23
2018-12-11T14:33:14.644Z,11.40
2018-12-11T14:35:42.857Z,10.23
2018-12-11T14:38:11.178Z,18.63
2018-12-11T14:40:39.393Z,21.87
2018-12-11T14:43:07.616Z,121.73
2018-12-11T14:45:35.891Z,21.17
2018-12-11T14:48:04.212Z,15.37
2018-12-11T14:50:32.533Z,20.57
2018-12-11T14:53:00.755Z,22.27
2018-12-11T14:55:29.022Z,12.87
2018-12-11T14:57:57.231Z,9.77
2018-12-11T15:00:25.487Z,18.10
2018-12-11T15:02:54.030Z,37.80
2018-12-11T15:05:22.297Z,56.00
2018-12-11T15:07:50.533Z,96.83
2018-12-11T15:10:18.994Z,38.33
2018-12-11T15:12:47.415Z,34.40
2018-12-11T15:15:15.681Z,22.80
2018-12-11T15:17:43.879Z,28.03
2018-12-11T15:20:12.176Z,30.93
2018-12-11T15:22:40.430Z,30.03
2018-12-11T15:25:08.715Z,32.47
2018-12-11T15:27:36.981Z,97.73
2018-12-11T15:30:05.284Z,185.17
2018-12-11T15:32:33.517Z,428.60
2018-12-11T15:35:01.755Z,400.87
2018-12-11T15:37:29.856Z,413.73
2018-12-11T15:39:58.056Z,390.27
2018-12-11T15:42:26.457Z,248.00
2018-12-11T15:44:54.826Z,247.23
2018-12-11T15:47:23.028Z,607.43
2018-12-11T15:49:51.227Z,808.33
2018-12-11T15:52:19.476Z,530.27
2018-12-11T15:54:47.758Z,465.70
2018-12-11T15:57:16.177Z,532.13
2018-12-11T15:59:44.344Z,389.13
2018-12-11T16:02:12.543Z,436.10
2018-12-11T16:04:40.838Z,423.30
2018-12-11T16:07:09.062Z,273.03
2018-12-11T16:09:37.628Z,270.17
2018-12-11T16:12:06.352Z,209.33
2018-12-11T16:14:34.788Z,135.50
2018-12-11T16:17:02.992Z,117.43
2018-12-11T16:19:31.088Z,97.43
2018-12-11T16:21:59.416Z,79.47
2018-12-11T16:24:27.701Z,73.87
2018-12-11T16:26:55.866Z,67.73
2018-12-11T16:29:24.066Z,61.87
2018-12-11T16:31:52.279Z,62.17
2018-12-11T16:34:20.591Z,84.60
2018-12-11T16:36:48.902Z,45.90
2018-12-11T16:39:17.225Z,68.07
2018-12-11T16:41:45.468Z,51.77
2018-12-11T16:44:13.686Z,57.47
2018-12-11T16:46:41.982Z,25.63
2018-12-11T16:49:10.125Z,46.10
2018-12-11T16:51:38.526Z,49.47
2018-12-11T16:54:06.788Z,57.77
2018-12-11T16:56:34.995Z,29.57
2018-12-11T16:59:03.208Z,49.13
2018-12-11T17:01:31.604Z,40.63
2018-12-11T17:03:59.923Z,31.80
2018-12-11T17:06:28.146Z,47.33
2018-12-11T17:08:56.411Z,120.87
2018-12-11T17:11:24.621Z,48.50
2018-12-11T17:13:52.856Z,59.97
2018-12-11T17:16:21.053Z,60.37
2018-12-11T17:18:49.345Z,39.10
2018-12-11T17:21:17.613Z,42.07
2018-12-11T17:23:45.833Z,47.63
2018-12-11T17:26:14.033Z,62.17
2018-12-11T17:28:42.262Z,55.13
2018-12-11T17:31:11.165Z,62.03
2018-12-11T17:33:39.398Z,54.73
2018-12-11T17:36:07.687Z,60.77
2018-12-11T17:38:35.958Z,85.53
2018-12-11T17:41:04.183Z,82.40
2018-12-11T17:43:32.480Z,71.93
2018-12-11T17:46:00.700Z,63.60
2018-12-11T17:48:29.191Z,32.10
2018-12-11T17:50:57.764Z,30.97
2018-12-11T17:53:26.115Z,34.77
2018-12-11T17:55:54.301Z,38.23
2018-12-11T17:58:22.617Z,35.93
2018-12-11T18:00:51.008Z,37.13
2018-12-11T18:03:19.263Z,40.33
2018-12-11T18:05:47.568Z,37.40
2018-12-11T18:08:15.792Z,52.23
2018-12-11T18:10:44.032Z,102.77
2018-12-11T18:13:12.347Z,95.30
2018-12-11T18:15:40.543Z,90.27
2018-12-11T18:18:08.819Z,77.77
2018-12-11T18:20:36.957Z,81.63
2018-12-11T18:23:05.205Z,90.40
2018-12-11T18:25:33.550Z,81.00
2018-12-11T18:28:01.762Z,72.27
2018-12-11T18:30:30.118Z,132.23
2018-12-11T18:32:58.303Z,81.27
2018-12-11T18:35:26.673Z,64.30
2018-12-11T18:37:55.011Z,51.57
2018-12-11T18:40:23.241Z,35.90
2018-12-11T18:42:51.494Z,51.57
2018-12-11T18:45:19.766Z,58.17
2018-12-11T18:47:50.001Z,57.03
2018-12-11T18:50:21.329Z,64.10
2018-12-11T18:52:48.781Z,68.20
2018-12-11T18:55:17.180Z,34.10
2018-12-11T18:57:45.542Z,34.43
2018-12-11T19:00:13.899Z,32.33
2018-12-11T19:02:42.140Z,33.53
2018-12-11T19:05:10.431Z,31.67
2018-12-11T19:07:38.604Z,36.03
2018-12-11T19:10:06.847Z,26.30
2018-12-11T19:12:35.037Z,31.27
2018-12-11T19:15:04.824Z,37.03
2018-12-11T19:17:33.280Z,42.62
2018-12-11T19:20:01.496Z,48.60
2018-12-11T19:22:29.776Z,35.28
2018-12-11T19:24:58.248Z,32.83
2018-12-11T19:27:26.338Z,32.30
2018-12-11T19:29:55.396Z,35.50
2018-12-11T19:32:24.033Z,30.27
2018-12-11T19:34:52.214Z,33.13
2018-12-11T19:37:20.429Z,34.13
2018-12-11T19:39:48.644Z,37.60
2018-12-11T19:42:16.865Z,42.47
2018-12-11T19:44:45.160Z,35.83
2018-12-11T19:47:13.481Z,74.60
2018-12-11T19:49:41.744Z,33.93
2018-12-11T19:52:09.972Z,29.53
2018-12-11T19:54:38.177Z,22.43
2018-12-11T19:57:06.461Z,17.13
2018-12-11T19:59:34.785Z,18.97
2018-12-11T20:02:03.028Z,20.73
2018-12-11T20:04:31.162Z,34.37
2018-12-11T20:06:59.384Z,22.83
2018-12-11T20:09:27.583Z,27.83
2018-12-11T20:11:55.831Z,33.50
2018-12-11T20:14:24.033Z,34.70
2018-12-11T20:16:52.253Z,38.35
2018-12-11T20:19:20.485Z,31.47
2018-12-11T20:21:48.695Z,69.43
2018-12-11T20:24:16.932Z,143.00
2018-12-11T20:26:45.200Z,121.87
2018-12-11T20:29:13.422Z,55.57
2018-12-11T20:31:41.685Z,62.80
2018-12-11T20:34:09.799Z,41.53
2018-12-11T20:36:38.024Z,38.83
2018-12-11T20:39:06.633Z,29.33
2018-12-11T20:41:34.846Z,33.80
2018-12-11T20:44:03.243Z,44.13
2018-12-11T20:46:31.511Z,73.47
2018-12-11T20:48:59.729Z,53.17
2018-12-11T20:51:27.928Z,47.80
2018-12-11T20:53:56.161Z,61.45
2018-12-11T20:56:24.342Z,60.57
2018-12-11T20:58:52.577Z,50.33
2018-12-11T21:01:20.824Z,80.60
2018-12-11T21:03:49.049Z,172.40
2018-12-11T21:06:17.222Z,144.03
2018-12-11T21:08:45.785Z,146.10
2018-12-11T21:11:14.017Z,129.13
2018-12-11T21:13:42.329Z,101.17
2018-12-11T21:16:11.091Z,65.17
2018-12-11T21:18:39.204Z,89.53
2018-12-11T21:21:07.468Z,61.95
2018-12-11T21:23:35.336Z,48.97
2018-12-11T21:28:42.942Z,44.40
2018-12-11T21:31:10.819Z,55.37
2018-12-11T21:33:42.072Z,49.97
2018-12-11T21:36:10.337Z,45.77
2018-12-11T21:38:38.632Z,34.40
2018-12-11T21:41:06.898Z,49.27
2018-12-11T21:43:35.120Z,37.03
2018-12-11T21:46:11.114Z,28.57
2018-12-11T21:48:39.304Z,27.80
2018-12-11T21:51:08.772Z,39.93
2018-12-11T21:53:36.647Z,29.90
2018-12-11T21:56:04.660Z,25.08
2018-12-11T21:58:40.326Z,27.45
2018-12-11T22:01:08.617Z,24.47
2018-12-11T22:03:36.664Z,23.83
2018-12-11T22:06:09.289Z,19.62
2018-12-11T22:08:37.571Z,19.00
2018-12-11T22:11:05.862Z,18.90
2018-12-11T22:13:34.117Z,19.50
2018-12-11T22:16:15.907Z,21.55
2018-12-11T22:18:44.170Z,22.57
2018-12-11T22:21:12.424Z,13.35
2018-12-11T22:23:40.660Z,18.00
2018-12-11T22:26:08.553Z,19.17
2018-12-11T22:28:36.850Z,67.13
2018-12-11T22:31:04.687Z,68.33
2018-12-11T22:33:32.653Z,48.13
2018-12-11T22:36:03.142Z,23.10
2018-12-11T22:38:31.481Z,22.47
2018-12-11T22:40:59.699Z,24.70
2018-12-11T22:43:27.636Z,34.00
2018-12-11T22:45:59.382Z,37.07
2018-12-11T22:48:27.912Z,27.50
2018-12-11T22:50:56.096Z,23.17
2018-12-11T22:53:24.312Z,19.93
2018-12-11T22:55:52.397Z,23.40
2018-12-11T22:58:20.274Z,21.50
2018-12-11T23:00:48.599Z,18.90
2018-12-11T23:03:16.459Z,20.80
2018-12-11T23:05:44.326Z,23.37
2018-12-11T23:08:12.243Z,28.63
2018-12-11T23:10:40.201Z,26.67
2018-12-11T23:13:08.084Z,25.10
2018-12-11T23:15:35.955Z,23.53
2018-12-11T23:18:03.829Z,25.90
2018-12-11T23:20:31.779Z,24.07
2018-12-11T23:22:59.660Z,31.57
2018-12-11T23:25:28.280Z,40.30
2018-12-11T23:27:56.893Z,32.77
2018-12-11T23:30:24.931Z,39.73
2018-12-11T23:32:52.883Z,38.80
2018-12-11T23:35:20.778Z,42.00
2018-12-11T23:37:48.625Z,39.93
2018-12-11T23:40:16.518Z,53.73
2018-12-11T23:42:44.364Z,54.83
2018-12-11T23:45:12.296Z,44.37
2018-12-11T23:47:40.200Z,36.25
2018-12-11T23:50:08.028Z,50.43
2018-12-11T23:52:35.832Z,45.20
2018-12-11T23:55:03.813Z,41.00
2018-12-11T23:57:31.677Z,44.05
2018-12-11T23:59:59.552Z,40.60
